Colfax, WI (54730)

12:47 PM CDT on May 25, 2015 (GMT -0500)
5 Miles SE of Colfax | | Change Station
CLOSE
Current Station
Personal Weather Station
Location: Colfax, WI
Elevation: 1115 ft
Nearby Weather Stations

Elev 1115 ft 44.96 °N, 91.67 °W | Updated 6 minutes ago

Overcast
Overcast
66.2 °F
Feels Like 66.2 °F
N
6.8
Wind Variable Wind from NW

Today
High -- | Low -- °F
--% Chance of Precip.
Yesterday
High -- | Low -- °F
Precip. -- in
5:28 AM 8:39 PM
Waxing Crescent, 50% visible
Pressure 29.71 in
Visibility 10.0 miles
Clouds Scattered Clouds 1500 ft
Scattered Clouds 2000 ft
Overcast 3800 ft
Dew Point 63 °F
Humidity 89%
Rainfall 0.49 in
Snow Depth Not available.
UV 3 out of 12
Pollen .90 out of 12
Air Quality Not available.
Flu Activity Sporadic
METAR KLUM 251735Z AUTO 20011G14KT 10SM SCT015 SCT020 OVC038 20/16 A2971 RMK AO2 T01970161

More Conditions Fewer Conditions

Pressure 29.71 in
Visibility 10.0 miles
Clouds Scattered Clouds 1500 ft
Scattered Clouds 2000 ft
Overcast 3800 ft
Dew Point 63 °F
Humidity 89%
Rainfall 0.49 in
Snow Depth Not available.
UV 3 out of 12
Pollen .90 out of 12
Air Quality Not available.
Flu Activity Sporadic
METAR KLUM 251735Z AUTO 20011G14KT 10SM SCT015 SCT020 OVC038 20/16 A2971 RMK AO2 T01970161

More Conditions Fewer Conditions

10-Day Weather Forecast

Almanac

Astronomy

May. 25, 2015 Rise Set
Actual Time
Civil Twilight
Nautical Twilight
Astronomical Twilight
Moon
Length of Visible Light
Length of Day
Tomorrow will be .
, % of the Moon is Illuminated

Today's Extremes

State Highs State Lows

Community

WunderPhotos

Upload Photos

1,824,071 photos uploaded!

WunderBlogs® & News

Nearby

Air Quality

  Air Quality AQ Index Pollutant
Not available.

Snow Depth

Station Depth Elevation

Earthquake Activity

City Distance Mag. Time & Date
Minimum magnitude displayed is 2.5.

Coastal Water Temperatures

Place Temperature

Stations

Nearby Weather Stations

Station Location Temp. Windchill Dew Point Humidity Wind Precip. Elev Updated Type